Terminal Aerodrome Forecast
Issued by NWS Sterling, VA

Home | Current Version | Previous Version | Text Only | Print | Product List | Glossary On
Versions: 1 2 3 4 5 6 7 8 9 10 11 12 13 14 15 16 17 18 19 20 21 22 23 24 25 26
000
FTUS41 KLWX 140300 AAC
TAFIAD
TAF AMD
KIAD 140327Z 1403/1506 19005KT 6SM -SHRA SCT050 OVC080
     FM140600 VRB03KT P6SM BKN060
     FM140900 00000KT 5SM BR BKN120
     FM141300 VRB03KT P6SM BKN060
     FM141800 23009KT 3SM SHRA VCTS BKN040CB=

USA.gov is the U.S. government's official web portal to all federal, state and local government web resources and services.